Hovedside
METAR-TAF:

METAR-TAF

Lufthavner :

Røst lufthavn

Røst, Norge

breddegrad: 67-31N, lengdegrad: 012-06E, høyde over havet: 4 m

Gjeldene værobservasjon

Denne rapporten ble laget for 4 timer og 18 minutter siden, klokken 16:50 UTC
Vind 14 kt fra Sørvest
Temperatur 9°C
Luftfuktighet 81%
Trykk 1019 hPa
Sikt 10 km eller mer
ingen skyer under 1500 m og ingen bygeskyer

METAR: ENRS 231650Z 22014KT CAVOK 09/06 Q1019

Tid: 23:08 (21:08 UTC)


TAF: fraværende

Værobservasjoner og værvarsel for over 4000 flyplasser (METAR- og TAF-rapporter).

Tilgjengelige stasjoner er representert av de røde og gule prikkene på kartet.

Hold musepekeren over prikken for å se navnet på stasjonen.

Klikk så for å se værobservasjoner og -varsler.

For å forandre kartet kan du klikke på den grønne knappen med svart kryss for å zoome inn, på den grønne knappen med strek for å zoome ut, eller på de grønne pilene for å se tilstøtende kart.


METAR-TAF: